< < Back
Terminal Aerodrome Forecast


Current Version              Previous Versions:   1  2  3  4  5  6  7  8  9  

Terminal Aerodrome Forecast

513
FTUS42 KCAE 182300 CCA
TAFAGS
TAF COR
KAGS 182339Z 1900/1924 VRB03KT P6SM SCT060 SCT250
     FM191500 03003KT P6SM BKN200=

Latest METAR

941
SAUS70 KWBC 182300 RRB
MTRAGS
METAR KAGS 182253Z 00000KT 10SM CLR 11/04 A3008 RMK AO2 SLP186
T01060044


USA.gov is the U.S. government's official web portal to all federal, state and local government web resources and services.